Ocean Titan — WDB9647 — position and weather

sailwx.info

Track history (hours):
 
Tides and Currents Weather Stations Pressure Air Temp Water Temp Dewpoint Dewpoint Depression Visibility Wind Speed Wind Dir Waves Ship Positions

Ocean Titan

Owner: WESTERN TOWBOAT CO, Seattle, WA. More information available from US FCC via Universal Licensing System and Coast Guard Vessel Documentation Center.

Last reported at 2017-Dec-16 14:04 UTC. Time now 2017-Dec-17 08:18 UTC.
Position N 54°36' W 130°44'.

Type: Tow > 200 m length. MMSI: 366980180.

Date/timePositionNaut miles runAvg speedWind from/ knotsBaromVisibWave heightAir tempDewpointWater temp
2017-Dec-16 14:04N 54°36' W 130°44'110.5
2017-Dec-16 13:56N 54°35' W 130°44'610.2
2017-Dec-16 13:18N 54°29' W 130°40'310.1
2017-Dec-16 12:59N 54°26' W 130°39'611.1
2017-Dec-16 12:29N 54°20' W 130°36'510.7
2017-Dec-16 12:01N 54°16' W 130°32'510.4
2017-Dec-16 11:30N 54°11' W 130°28'510.1
2017-Dec-16 11:00N 54°07' W 130°23'510.5
2017-Dec-16 10:30N 54°04' W 130°16'510.5
2017-Dec-16 10:00N 53°59' W 130°12'5 9.5
2017-Dec-16 09:30N 53°55' W 130°09'106 8.9
2017-Dec-15 21:35N 52°28' W 128°27'2 9.7
2017-Dec-15 21:24N 52°26' W 128°28'4 9.5
2017-Dec-15 21:00N 52°23' W 128°32'9 8.8
2017-Dec-15 19:57N 52°15' W 128°24'5 9.6
2017-Dec-15 19:28N 52°15' W 128°16'5 9.8
2017-Dec-15 18:55N 52°13' W 128°08'3 7.5
2017-Dec-15 18:29N 52°09' W 128°08'9 7.7
2017-Dec-15 17:19N 52°04' W 127°56'3 9.7
2017-Dec-15 16:59N 52°01' W 127°56'5 9.9
2017-Dec-15 16:30N 51°56' W 127°56'510.0
2017-Dec-15 16:00N 51°51' W 127°56'5 9.8
2017-Dec-15 15:30N 51°46' W 127°55'4 7.2
2017-Dec-15 15:00N 51°43' W 127°55'5 9.2
2017-Dec-15 14:30N 51°38' W 127°54'5 9.6
2017-Dec-15 14:00N 51°33' W 127°52'5 9.6
2017-Dec-15 13:29N 51°28' W 127°51'5 9.5
2017-Dec-15 12:59N 51°24' W 127°52'5 9.4
2017-Dec-15 12:25N 51°18' W 127°53'5 9.1
2017-Dec-15 11:51N 51°13' W 127°52'106 9.5
2017-Dec-15 00:41N 50°20' W 125°27'2 9.0
2017-Dec-15 00:28N 50°19' W 125°25'58 9.7
2017-Dec-14 18:29N 49°35' W 124°26'15 9.9
2017-Dec-14 17:00N 49°28' W 124°07'12 9.8
2017-Dec-14 15:45N 49°22' W 123°50'7 9.5
2017-Dec-14 14:59N 49°17' W 123°42'4 9.4
2017-Dec-14 14:30N 49°14' W 123°37'4 9.0
2017-Dec-14 14:00N 49°11' W 123°32'5 9.1
2017-Dec-14 13:30N 49°08' W 123°27'5 9.1
2017-Dec-14 13:00N 49°05' W 123°22'5 9.5
2017-Dec-14 12:29N 49°01' W 123°16'5 9.0
2017-Dec-14 11:58N 48°58' W 123°11'4 8.8
2017-Dec-14 11:30N 48°55' W 123°06'7 9.8
2017-Dec-14 10:47N 48°51' W 122°58'310.2
2017-Dec-14 10:30N 48°49' W 122°55'610.4
2017-Dec-14 09:55N 48°46' W 122°47'410.7
2017-Dec-14 09:30N 48°42' W 122°44'611.0
2017-Dec-14 09:00N 48°37' W 122°45'611.9
2017-Dec-14 08:30N 48°31' W 122°44'510.7
2017-Dec-14 08:00N 48°25' W 122°44'5 9.6
2017-Dec-14 07:30N 48°21' W 122°45'5 9.4
2017-Dec-14 06:58N 48°16' W 122°47'4 7.6
2017-Dec-14 06:27N 48°12' W 122°47'4 8.0
2017-Dec-14 06:00N 48°09' W 122°43'10 8.9
2017-Dec-14 04:52N 48°00' W 122°36'3 9.6
2017-Dec-14 04:30N 47°57' W 122°33'5 9.6
2017-Dec-14 04:00N 47°54' W 122°28'5 9.9
2017-Dec-14 03:30N 47°49' W 122°27'5 9.9
2017-Dec-14 03:00N 47°44' W 122°26'5 9.9
2017-Dec-14 02:30N 47°39' W 122°27'5 9.1
2017-Dec-14 02:00N 47°36' W 122°22'2 3.8
2017-Dec-14 01:30N 47°34' W 122°21'1 2.4
2017-Dec-14 01:00N 47°33' W 122°21'0 0.0
2017-Dec-14 00:31N 47°33' W 122°21'2 3.8
2017-Dec-14 00:00N 47°35' W 122°22'510.2
2017-Dec-13 23:30N 47°39' W 122°26'2 3.8
2017-Dec-13 23:00N 47°40' W 122°24'1 1.3
2017-Dec-13 22:30N 47°40' W 122°23'1 1.7
2017-Dec-13 22:00N 47°39' W 122°22'0 0.0
2017-Dec-13 21:30N 47°39' W 122°22'0 0.0
2017-Dec-13 21:00N 47°39' W 122°22'0 0.0
2017-Dec-13 20:30N 47°39' W 122°22'0 0.0
2017-Dec-13 20:00N 47°39' W 122°22'0 0.0
2017-Dec-13 19:30N 47°39' W 122°22'0 0.0
2017-Dec-13 19:00N 47°39' W 122°22'0 0.1
2017-Dec-13 18:30N 47°39' W 122°22'0 0.0
2017-Dec-13 18:00N 47°39' W 122°22'0 0.0
2017-Dec-13 17:30N 47°39' W 122°22'0 0.0
2017-Dec-13 17:00N 47°39' W 122°22'0 0.0
2017-Dec-13 16:31N 47°39' W 122°22'0 0.0
2017-Dec-13 16:00N 47°39' W 122°22'0 0.0
2017-Dec-13 15:30N 47°39' W 122°22'  
2017-Dec-10 17:10N 47°39' W 122°22'0 1.3
2017-Dec-10 17:00N 47°39' W 122°22'1 2.8
2017-Dec-10 16:30N 47°40' W 122°24'2 4.3
2017-Dec-10 16:00N 47°38' W 122°25'3 5.7
2017-Dec-10 15:30N 47°36' W 122°22'4 7.6
2017-Dec-10 15:00N 47°38' W 122°27'3 5.5
2017-Dec-10 14:30N 47°41' W 122°28'3 6.0
2017-Dec-10 14:00N 47°44' W 122°27'3 5.8
2017-Dec-10 13:30N 47°47' W 122°27'3 5.3
2017-Dec-10 13:00N 47°49' W 122°28'3 6.0
2017-Dec-10 12:30N 47°52' W 122°29'4 7.0
2017-Dec-10 12:00N 47°56' W 122°31'5 8.2
2017-Dec-10 11:24N 47°59' W 122°37'4 8.1
2017-Dec-10 10:55N 48°02' W 122°39'15 7.3
2017-Dec-10 08:51N 48°16' W 122°48'410.5
2017-Dec-10 08:30N 48°20' W 122°47'610.8
2017-Dec-10 07:59N 48°25' W 122°45'511.1
2017-Dec-10 07:30N 48°30' W 122°45'511.0
2017-Dec-10 07:00N 48°36' W 122°45'510.2
2017-Dec-10 06:30N 48°41' W 122°44'6 9.2
2017-Dec-10 05:49N 48°46' W 122°50'3 9.7
2017-Dec-10 05:29N 48°48' W 122°54'510.3
2017-Dec-10 04:57N 48°51' W 123°01'4 9.7
2017-Dec-10 04:30N 48°53' W 123°06'5 9.5
2017-Dec-10 04:00N 48°56' W 123°12'5 9.6
2017-Dec-10 03:28N 48°60' W 123°18'5 9.5
2017-Dec-10 02:56N 49°03' W 123°24'7 9.8
2017-Dec-10 02:14N 49°08' W 123°31'3 9.8
2017-Dec-10 01:55N 49°10' W 123°34'4 9.3
2017-Dec-10 01:30N 49°13' W 123°39'6 9.4
2017-Dec-10 00:54N 49°16' W 123°45'5 9.8
2017-Dec-10 00:27N 49°19' W 123°51'23 9.9
2017-Dec-09 22:06N 49°33' W 124°19'1 9.8
2017-Dec-09 21:59N 49°33' W 124°21'5 9.7
2017-Dec-09 21:30N 49°36' W 124°27'5 9.3
2017-Dec-09 21:00N 49°39' W 124°33'5 9.7
2017-Dec-09 20:30N 49°41' W 124°39'5 9.7
2017-Dec-09 20:00N 49°44' W 124°45'5 9.4
2017-Dec-09 19:30N 49°47' W 124°50'5 9.5
2017-Dec-09 19:00N 49°50' W 124°56'5 9.5
2017-Dec-09 18:30N 49°53' W 125°02'5 9.6
2017-Dec-09 17:59N 49°56' W 125°08'510.4
2017-Dec-09 17:30N 50°01' W 125°12'611.4
2017-Dec-09 17:00N 50°05' W 125°17'510.4
2017-Dec-09 16:30N 50°10' W 125°22'3 6.6
2017-Dec-09 15:59N 50°13' W 125°23'3 5.7
2017-Dec-09 15:30N 50°16' W 125°24'4 8.4
2017-Dec-09 15:00N 50°20' W 125°25'710.6
2017-Dec-09 14:20N 50°22' W 125°36'410.5
2017-Dec-09 13:59N 50°22' W 125°42'51 7.8
2017-Dec-09 07:30N 50°42' W 126°55'4 7.8
2017-Dec-09 07:00N 50°43' W 127°01'4 7.6
2017-Dec-09 06:30N 50°45' W 127°06'4 7.5
2017-Dec-09 06:00N 50°47' W 127°11'4 7.3
2017-Dec-09 05:30N 50°50' W 127°15'4 7.5
2017-Dec-09 05:00N 50°52' W 127°20'4 7.4
2017-Dec-09 04:30N 50°54' W 127°24'3 6.9
2017-Dec-09 04:00N 50°57' W 127°28'3 5.5
2017-Dec-09 03:30N 50°58' W 127°32'3 5.6
2017-Dec-09 03:00N 50°60' W 127°36'3 6.8
2017-Dec-09 02:30N 51°03' W 127°39'4 8.0
2017-Dec-09 02:00N 51°05' W 127°43'4 8.0
2017-Dec-09 01:30N 51°08' W 127°48'4 7.5
2017-Dec-09 00:58N 51°11' W 127°51'4 8.2
2017-Dec-09 00:29N 51°15' W 127°52'5 8.3
2017-Dec-08 23:50N 51°21' W 127°53'3 8.9
2017-Dec-08 23:28N 51°24' W 127°52'5 9.7
2017-Dec-08 22:59N 51°29' W 127°51'5 9.8
2017-Dec-08 22:30N 51°33' W 127°53'5 9.6
2017-Dec-08 22:00N 51°38' W 127°54'5 9.3
2017-Dec-08 21:30N 51°43' W 127°55'5 9.9
2017-Dec-08 21:00N 51°47' W 127°56'5 9.5
2017-Dec-08 20:30N 51°52' W 127°56'5 9.9
2017-Dec-08 20:00N 51°57' W 127°56'510.0
2017-Dec-08 19:30N 52°02' W 127°55'510.6
2017-Dec-08 19:00N 52°07' W 127°53'13 6.2
2017-Dec-08 16:52N 52°16' W 128°09'3 9.2
2017-Dec-08 16:29N 52°16' W 128°14'8 8.2
2017-Dec-08 15:30N 52°16' W 128°27'5 9.2
2017-Dec-08 15:00N 52°20' W 128°31'5 9.4
2017-Dec-08 14:30N 52°25' W 128°30'510.0
2017-Dec-08 14:00N 52°30' W 128°27'6 9.8
2017-Dec-08 13:23N 52°36' W 128°29'85 8.8
2017-Dec-08 03:41N 53°45' W 129°53'2 8.3
2017-Dec-08 03:30N 53°46' W 129°54'4 8.8
2017-Dec-08 03:00N 53°49' W 129°59'4 8.7
2017-Dec-08 02:30N 53°52' W 130°04'4 8.8
2017-Dec-08 02:00N 53°55' W 130°11'5 9.4
2017-Dec-08 01:30N 53°59' W 130°13'5 9.2
2017-Dec-08 01:00N 54°04' W 130°16'4 8.4
2017-Dec-08 00:30N 54°06' W 130°22'4 8.3
2017-Dec-08 00:00N 54°09' W 130°26'4 8.8
2017-Dec-07 23:30N 54°13' W 130°30'4 8.7
2017-Dec-07 23:00N 54°17' W 130°34'4 8.9
2017-Dec-07 22:30N 54°21' W 130°37'5 9.6
2017-Dec-07 22:00N 54°26' W 130°39'5 9.9
2017-Dec-07 21:29N 54°30' W 130°42'5 9.9
2017-Dec-07 21:00N 54°35' W 130°44'5 8.7
2017-Dec-07 20:27N 54°40' W 130°47'4 8.3
2017-Dec-07 19:58N 54°43' W 130°51'5 9.2
2017-Dec-07 19:25N 54°47' W 130°56'  
Track history (hours):
 
Tides and Currents Weather Stations Pressure Air Temp Water Temp Dewpoint Dewpoint Depression Visibility Wind Speed Wind Dir Waves Ship Positions

Ocean Titan

Owner: WESTERN TOWBOAT CO, Seattle, WA. More information available from US FCC via Universal Licensing System and Coast Guard Vessel Documentation Center.

Last reported at 2017-Dec-16 14:04 UTC. Time now 2017-Dec-17 08:18 UTC.
Position N 54°36' W 130°44'.

Type: Tow > 200 m length. MMSI: 366980180.

Date/timePositionNaut miles runAvg speedWind from/ knotsBaromVisibWave heightAir tempDewpointWater temp
2017-Dec-16 14:04N 54°36' W 130°44'110.5
2017-Dec-16 13:56N 54°35' W 130°44'610.2
2017-Dec-16 13:18N 54°29' W 130°40'310.1
2017-Dec-16 12:59N 54°26' W 130°39'611.1
2017-Dec-16 12:29N 54°20' W 130°36'510.7
2017-Dec-16 12:01N 54°16' W 130°32'510.4
2017-Dec-16 11:30N 54°11' W 130°28'510.1
2017-Dec-16 11:00N 54°07' W 130°23'510.5
2017-Dec-16 10:30N 54°04' W 130°16'510.5
2017-Dec-16 10:00N 53°59' W 130°12'5 9.5
2017-Dec-16 09:30N 53°55' W 130°09'106 8.9
2017-Dec-15 21:35N 52°28' W 128°27'2 9.7
2017-Dec-15 21:24N 52°26' W 128°28'4 9.5
2017-Dec-15 21:00N 52°23' W 128°32'9 8.8
2017-Dec-15 19:57N 52°15' W 128°24'5 9.6
2017-Dec-15 19:28N 52°15' W 128°16'5 9.8
2017-Dec-15 18:55N 52°13' W 128°08'3 7.5
2017-Dec-15 18:29N 52°09' W 128°08'9 7.7
2017-Dec-15 17:19N 52°04' W 127°56'3 9.7
2017-Dec-15 16:59N 52°01' W 127°56'5 9.9
2017-Dec-15 16:30N 51°56' W 127°56'510.0
2017-Dec-15 16:00N 51°51' W 127°56'5 9.8
2017-Dec-15 15:30N 51°46' W 127°55'4 7.2
2017-Dec-15 15:00N 51°43' W 127°55'5 9.2
2017-Dec-15 14:30N 51°38' W 127°54'5 9.6
2017-Dec-15 14:00N 51°33' W 127°52'5 9.6
2017-Dec-15 13:29N 51°28' W 127°51'5 9.5
2017-Dec-15 12:59N 51°24' W 127°52'5 9.4
2017-Dec-15 12:25N 51°18' W 127°53'5 9.1
2017-Dec-15 11:51N 51°13' W 127°52'106 9.5
2017-Dec-15 00:41N 50°20' W 125°27'2 9.0
2017-Dec-15 00:28N 50°19' W 125°25'58 9.7
2017-Dec-14 18:29N 49°35' W 124°26'15 9.9
2017-Dec-14 17:00N 49°28' W 124°07'12 9.8
2017-Dec-14 15:45N 49°22' W 123°50'7 9.5
2017-Dec-14 14:59N 49°17' W 123°42'4 9.4
2017-Dec-14 14:30N 49°14' W 123°37'4 9.0
2017-Dec-14 14:00N 49°11' W 123°32'5 9.1
2017-Dec-14 13:30N 49°08' W 123°27'5 9.1
2017-Dec-14 13:00N 49°05' W 123°22'5 9.5
2017-Dec-14 12:29N 49°01' W 123°16'5 9.0
2017-Dec-14 11:58N 48°58' W 123°11'4 8.8
2017-Dec-14 11:30N 48°55' W 123°06'7 9.8
2017-Dec-14 10:47N 48°51' W 122°58'310.2
2017-Dec-14 10:30N 48°49' W 122°55'610.4
2017-Dec-14 09:55N 48°46' W 122°47'410.7
2017-Dec-14 09:30N 48°42' W 122°44'611.0
2017-Dec-14 09:00N 48°37' W 122°45'611.9
2017-Dec-14 08:30N 48°31' W 122°44'510.7
2017-Dec-14 08:00N 48°25' W 122°44'5 9.6
2017-Dec-14 07:30N 48°21' W 122°45'5 9.4
2017-Dec-14 06:58N 48°16' W 122°47'4 7.6
2017-Dec-14 06:27N 48°12' W 122°47'4 8.0
2017-Dec-14 06:00N 48°09' W 122°43'10 8.9
2017-Dec-14 04:52N 48°00' W 122°36'3 9.6
2017-Dec-14 04:30N 47°57' W 122°33'5 9.6
2017-Dec-14 04:00N 47°54' W 122°28'5 9.9
2017-Dec-14 03:30N 47°49' W 122°27'5 9.9
2017-Dec-14 03:00N 47°44' W 122°26'5 9.9
2017-Dec-14 02:30N 47°39' W 122°27'5 9.1
2017-Dec-14 02:00N 47°36' W 122°22'2 3.8
2017-Dec-14 01:30N 47°34' W 122°21'1 2.4
2017-Dec-14 01:00N 47°33' W 122°21'0 0.0
2017-Dec-14 00:31N 47°33' W 122°21'2 3.8
2017-Dec-14 00:00N 47°35' W 122°22'510.2
2017-Dec-13 23:30N 47°39' W 122°26'2 3.8
2017-Dec-13 23:00N 47°40' W 122°24'1 1.3
2017-Dec-13 22:30N 47°40' W 122°23'1 1.7
2017-Dec-13 22:00N 47°39' W 122°22'0 0.0
2017-Dec-13 21:30N 47°39' W 122°22'0 0.0
2017-Dec-13 21:00N 47°39' W 122°22'0 0.0
2017-Dec-13 20:30N 47°39' W 122°22'0 0.0
2017-Dec-13 20:00N 47°39' W 122°22'0 0.0
2017-Dec-13 19:30N 47°39' W 122°22'0 0.0
2017-Dec-13 19:00N 47°39' W 122°22'0 0.1
2017-Dec-13 18:30N 47°39' W 122°22'0 0.0
2017-Dec-13 18:00N 47°39' W 122°22'0 0.0
2017-Dec-13 17:30N 47°39' W 122°22'0 0.0
2017-Dec-13 17:00N 47°39' W 122°22'0 0.0
2017-Dec-13 16:31N 47°39' W 122°22'0 0.0
2017-Dec-13 16:00N 47°39' W 122°22'0 0.0
2017-Dec-13 15:30N 47°39' W 122°22'  
2017-Dec-10 17:10N 47°39' W 122°22'0 1.3
2017-Dec-10 17:00N 47°39' W 122°22'1 2.8
2017-Dec-10 16:30N 47°40' W 122°24'2 4.3
2017-Dec-10 16:00N 47°38' W 122°25'3 5.7
2017-Dec-10 15:30N 47°36' W 122°22'4 7.6
2017-Dec-10 15:00N 47°38' W 122°27'3 5.5
2017-Dec-10 14:30N 47°41' W 122°28'3 6.0
2017-Dec-10 14:00N 47°44' W 122°27'3 5.8
2017-Dec-10 13:30N 47°47' W 122°27'3 5.3
2017-Dec-10 13:00N 47°49' W 122°28'3 6.0
2017-Dec-10 12:30N 47°52' W 122°29'4 7.0
2017-Dec-10 12:00N 47°56' W 122°31'5 8.2
2017-Dec-10 11:24N 47°59' W 122°37'4 8.1
2017-Dec-10 10:55N 48°02' W 122°39'15 7.3
2017-Dec-10 08:51N 48°16' W 122°48'410.5
2017-Dec-10 08:30N 48°20' W 122°47'610.8
2017-Dec-10 07:59N 48°25' W 122°45'511.1
2017-Dec-10 07:30N 48°30' W 122°45'511.0
2017-Dec-10 07:00N 48°36' W 122°45'510.2
2017-Dec-10 06:30N 48°41' W 122°44'6 9.2
2017-Dec-10 05:49N 48°46' W 122°50'3 9.7
2017-Dec-10 05:29N 48°48' W 122°54'510.3
2017-Dec-10 04:57N 48°51' W 123°01'4 9.7
2017-Dec-10 04:30N 48°53' W 123°06'5 9.5
2017-Dec-10 04:00N 48°56' W 123°12'5 9.6
2017-Dec-10 03:28N 48°60' W 123°18'5 9.5
2017-Dec-10 02:56N 49°03' W 123°24'7 9.8
2017-Dec-10 02:14N 49°08' W 123°31'3 9.8
2017-Dec-10 01:55N 49°10' W 123°34'4 9.3
2017-Dec-10 01:30N 49°13' W 123°39'6 9.4
2017-Dec-10 00:54N 49°16' W 123°45'5 9.8
2017-Dec-10 00:27N 49°19' W 123°51'23 9.9
2017-Dec-09 22:06N 49°33' W 124°19'1 9.8
2017-Dec-09 21:59N 49°33' W 124°21'5 9.7
2017-Dec-09 21:30N 49°36' W 124°27'5 9.3
2017-Dec-09 21:00N 49°39' W 124°33'5 9.7
2017-Dec-09 20:30N 49°41' W 124°39'5 9.7
2017-Dec-09 20:00N 49°44' W 124°45'5 9.4
2017-Dec-09 19:30N 49°47' W 124°50'5 9.5
2017-Dec-09 19:00N 49°50' W 124°56'5 9.5
2017-Dec-09 18:30N 49°53' W 125°02'5 9.6
2017-Dec-09 17:59N 49°56' W 125°08'510.4
2017-Dec-09 17:30N 50°01' W 125°12'611.4
2017-Dec-09 17:00N 50°05' W 125°17'510.4
2017-Dec-09 16:30N 50°10' W 125°22'3 6.6
2017-Dec-09 15:59N 50°13' W 125°23'3 5.7
2017-Dec-09 15:30N 50°16' W 125°24'4 8.4
2017-Dec-09 15:00N 50°20' W 125°25'710.6
2017-Dec-09 14:20N 50°22' W 125°36'410.5
2017-Dec-09 13:59N 50°22' W 125°42'51 7.8
2017-Dec-09 07:30N 50°42' W 126°55'4 7.8
2017-Dec-09 07:00N 50°43' W 127°01'4 7.6
2017-Dec-09 06:30N 50°45' W 127°06'4 7.5
2017-Dec-09 06:00N 50°47' W 127°11'4 7.3
2017-Dec-09 05:30N 50°50' W 127°15'4 7.5
2017-Dec-09 05:00N 50°52' W 127°20'4 7.4
2017-Dec-09 04:30N 50°54' W 127°24'3 6.9
2017-Dec-09 04:00N 50°57' W 127°28'3 5.5
2017-Dec-09 03:30N 50°58' W 127°32'3 5.6
2017-Dec-09 03:00N 50°60' W 127°36'3 6.8
2017-Dec-09 02:30N 51°03' W 127°39'4 8.0
2017-Dec-09 02:00N 51°05' W 127°43'4 8.0
2017-Dec-09 01:30N 51°08' W 127°48'4 7.5
2017-Dec-09 00:58N 51°11' W 127°51'4 8.2
2017-Dec-09 00:29N 51°15' W 127°52'5 8.3
2017-Dec-08 23:50N 51°21' W 127°53'3 8.9
2017-Dec-08 23:28N 51°24' W 127°52'5 9.7
2017-Dec-08 22:59N 51°29' W 127°51'5 9.8
2017-Dec-08 22:30N 51°33' W 127°53'5 9.6
2017-Dec-08 22:00N 51°38' W 127°54'5 9.3
2017-Dec-08 21:30N 51°43' W 127°55'5 9.9
2017-Dec-08 21:00N 51°47' W 127°56'5 9.5
2017-Dec-08 20:30N 51°52' W 127°56'5 9.9
2017-Dec-08 20:00N 51°57' W 127°56'510.0
2017-Dec-08 19:30N 52°02' W 127°55'510.6
2017-Dec-08 19:00N 52°07' W 127°53'13 6.2
2017-Dec-08 16:52N 52°16' W 128°09'3 9.2
2017-Dec-08 16:29N 52°16' W 128°14'8 8.2
2017-Dec-08 15:30N 52°16' W 128°27'5 9.2
2017-Dec-08 15:00N 52°20' W 128°31'5 9.4
2017-Dec-08 14:30N 52°25' W 128°30'510.0
2017-Dec-08 14:00N 52°30' W 128°27'6 9.8
2017-Dec-08 13:23N 52°36' W 128°29'85 8.8
2017-Dec-08 03:41N 53°45' W 129°53'2 8.3
2017-Dec-08 03:30N 53°46' W 129°54'4 8.8
2017-Dec-08 03:00N 53°49' W 129°59'4 8.7
2017-Dec-08 02:30N 53°52' W 130°04'4 8.8
2017-Dec-08 02:00N 53°55' W 130°11'5 9.4
2017-Dec-08 01:30N 53°59' W 130°13'5 9.2
2017-Dec-08 01:00N 54°04' W 130°16'4 8.4
2017-Dec-08 00:30N 54°06' W 130°22'4 8.3
2017-Dec-08 00:00N 54°09' W 130°26'4 8.8
2017-Dec-07 23:30N 54°13' W 130°30'4 8.7
2017-Dec-07 23:00N 54°17' W 130°34'4 8.9
2017-Dec-07 22:30N 54°21' W 130°37'5 9.6
2017-Dec-07 22:00N 54°26' W 130°39'5 9.9
2017-Dec-07 21:29N 54°30' W 130°42'5 9.9
2017-Dec-07 21:00N 54°35' W 130°44'5 8.7
2017-Dec-07 20:27N 54°40' W 130°47'4 8.3
2017-Dec-07 19:58N 54°43' W 130°51'5 9.2
2017-Dec-07 19:25N 54°47' W 130°56'  

Dump ship's entire track history